Terminal Aerodrome Forecast
Issued by NWS Sterling, VA

Home | Current Version | Previous Version | Text Only | Print | Product List | Glossary On
Versions: 1 2 3 4 5 6 7 8 9 10 11 12 13 14 15 16 17 18 19 20 21 22 23 24 25
000
FTUS41 KLWX 012000 AAC
TAFDCA
TAF AMD
KDCA 012059Z 0121/0218 22007KT P6SM BKN040
      TEMPO 0121/0122 6SM -RA
     FM012300 20005KT P6SM BKN090
     FM020200 20004KT P6SM FEW090 SCT250
     FM020800 27005KT P6SM SCT250=

USA.gov is the U.S. government's official web portal to all federal, state and local government web resources and services.